Uzhhorod, Ukraine
Current Conditions -  °F | °C
As of 1:30 PM on Monday 22 Dec 2014 (Local Time) from UKLU Reporting Station
Light Rain Light Rain  
Wind Chill: 34°   Ceiling: 1800
Heat Index: 39°   Visibility: 5mi
Dew Point: 34°   Wind: 7mph
Humidity: 81%   Direction: 150°SSE
Pressure: 30.06"   Gusts: NA
Location:  48.62°N, 22.3°E
Report Text: UKLU 221030Z 15003MPS 8000 -RA OVC018 04/01 Q1018 10290060 NOSIG
Loading
Personal Weather Stations






























Interactive Weather Map New forecast layout! Learn more

10-Day Weather Forecast

Advertisements
Track Severe Weather on mobile